Latest Weather Observations for Mount Boyce

IDN60801

Issued at 1:35 pm EST Wednesday 1 October 2014 (issued every 30 minutes, with the page automatically refreshed every 10 minutes)

About weather observations | Map of weather stations | Latest weather observations for NSW | Other Formats
Station Details ID: 063292 Name: MOUNT BOYCE AWS Lat: -33.62 Lon: 150.27 Height: 1080.0 m
Data from the previous 72 hours. | See also: Recent months at Mount Boyce
Date/Time
EST
Temp
°C
App
Temp
°C
Dew
Point
Rel
Hum
%
Delta-T
°C
Wind Press
QNH
hPa
Press
MSL
hPa
Rain
since 9 am
mm
Dir
 
Spd
km/h
Gust
km/h
Spd
kts
Gust
kts
01/01:30pm 12.9 6.1 -9.5 20 8.0 W 20 24 11 13 - - 0.0
01/01:00pm 12.1 5.2 -10.8 19 7.9 WSW 20 33 11 18 - - 0.0
01/12:30pm 13.0 5.8 -9.4 20 8.0 WSW 22 32 12 17 - - 0.0
01/12:00pm 12.1 4.5 -9.5 21 7.7 WSW 24 35 13 19 - - 0.0
01/11:30am 11.7 4.1 -9.3 22 7.4 WSW 24 35 13 19 - - 0.0
01/11:06am 10.7 1.9 -10.1 22 7.1 WSW 30 48 16 26 - - 0.0
01/11:00am 10.5 1.2 -9.7 23 7.0 WSW 33 50 18 27 - - 0.0
01/10:31am 10.3 1.3 -7.9 27 6.5 WSW 32 50 17 27 - - 0.0
01/10:30am 10.2 1.0 -7.9 27 6.5 WSW 33 50 18 27 - - 0.0
01/10:00am 8.3 -1.0 -10.0 26 6.1 WSW 33 61 18 33 - - 0.0
01/09:37am 8.2 0.0 -8.3 30 5.7 WSW 28 50 15 27 - - 0.0
01/09:30am 8.4 1.8 -6.5 34 5.4 SW 20 28 11 15 - - 0.0
01/09:00am 7.0 -3.2 -6.7 37 4.9 WSW 39 61 21 33 - - 0.0
01/08:30am 5.7 -3.8 -3.6 51 3.5 WSW 37 63 20 34 - - 0.0
01/08:00am 5.1 -5.5 -3.4 54 3.2 WSW 43 61 23 33 - - 0.0
01/07:32am 4.7 -4.9 -1.5 64 2.4 WSW 39 67 21 36 - - 0.0
01/07:30am 4.6 -5.0 -1.6 64 2.4 WSW 39 56 21 30 - - 0.0
01/07:01am 4.3 -5.2 -1.1 68 2.1 WSW 39 61 21 33 - - 0.0
01/07:00am 4.3 -5.2 -0.9 69 2.1 WSW 39 54 21 29 - - 0.0
01/06:30am 4.3 -4.5 -1.3 67 2.2 WSW 35 54 19 29 - - 0.0
01/06:05am 4.6 -3.9 -1.6 64 2.4 WSW 33 52 18 28 - - 0.0
01/06:00am 4.6 -3.9 -1.6 64 2.4 WSW 33 48 18 26 - - 0.0
01/05:30am 5.1 -2.9 -2.2 59 2.8 WSW 30 48 16 26 - - 0.0
01/05:00am 6.3 -1.9 -4.2 47 3.9 WSW 30 48 16 26 - - 0.0
01/04:35am 7.0 -1.4 -2.4 51 3.7 W 32 52 17 28 - - 0.0
01/04:30am 7.2 -0.8 -2.0 52 3.7 W 30 44 16 24 - - 0.0
01/04:00am 7.6 -1.0 0.3 60 3.1 WSW 35 57 19 31 - - 0.0
01/03:30am 8.0 0.7 2.7 69 2.4 WSW 30 57 16 31 - - 0.0
01/03:00am 8.6 1.4 3.2 69 2.5 W 30 50 16 27 - - 0.0
01/02:30am 9.4 2.7 3.6 67 2.7 W 28 46 15 25 - - 0.0
01/02:00am 10.9 3.2 2.2 55 4.0 W 32 56 17 30 - - 0.0
01/01:30am 13.7 4.9 -1.1 36 6.4 W 35 54 19 29 - - 0.0
01/01:00am 15.1 6.6 -1.5 32 7.2 W 33 61 18 33 - - 0.0
01/12:30am 15.5 6.3 -1.5 31 7.4 W 37 67 20 36 - - 0.0
01/12:00am 16.0 6.4 -1.5 30 7.7 W 39 59 21 32 - - 0.0
 
Date/Time
EST
Temp
°C
App
Temp
°C
Dew
Point
Rel
Hum
%
Delta-T
°C
Wind Press
QNH
hPa
Press
MSL
hPa
Rain
since 9 am
mm
Dir
 
Spd
km/h
Gust
km/h
Spd
kts
Gust
kts
30/11:30pm 16.5 7.3 -1.6 29 8.0 W 37 65 20 35 - - 0.0
30/11:00pm 16.6 8.2 -1.0 30 7.9 W 33 56 18 30 - - 0.0
30/10:30pm 16.7 8.8 0.8 34 7.4 W 32 52 17 28 - - 0.0
30/10:03pm 16.9 9.0 2.5 38 6.9 W 33 57 18 31 - - 0.0
30/10:00pm 16.9 9.0 2.5 38 6.9 W 33 48 18 26 - - 0.0
30/09:30pm 17.4 9.9 3.3 39 6.9 W 32 54 17 29 - - 0.0
30/09:00pm 18.0 9.8 2.7 36 7.4 W 35 57 19 31 - - 0.0
30/08:30pm 19.0 11.1 2.4 33 8.1 W 33 54 18 29 - - 0.0
30/08:00pm 19.3 11.0 2.2 32 8.3 W 35 61 19 33 - - 0.0
30/07:32pm 19.4 11.4 1.9 31 8.5 W 33 61 18 33 - - 0.0
30/07:30pm 19.4 11.4 1.9 31 8.5 W 33 46 18 25 - - 0.0
30/07:05pm 19.6 11.6 1.6 30 8.7 W 33 54 18 29 - - 0.0
30/07:00pm 19.5 11.7 1.9 31 8.5 W 32 46 17 25 - - 0.0
30/06:42pm 19.6 12.6 2.0 31 8.6 W 28 46 15 25 - - 0.0
30/06:30pm 19.6 12.2 2.0 31 8.6 W 30 46 16 25 - - 0.0
30/06:00pm 20.4 13.0 1.8 29 9.1 W 30 57 16 31 - - 0.0
30/05:30pm 21.2 13.1 1.0 26 9.7 WNW 33 65 18 35 - - 0.0
30/05:00pm 22.0 13.2 1.1 25 10.2 W 37 65 20 35 - - 0.0
30/04:30pm 22.5 14.1 1.5 25 10.3 W 35 57 19 31 - - 0.0
30/04:00pm 22.7 13.5 1.1 24 10.5 W 39 76 21 41 - - 0.0
30/03:58pm 22.9 13.3 1.3 24 10.6 W 41 76 22 41 - - 0.0
30/03:30pm 23.3 15.5 1.6 24 10.7 W 32 54 17 29 - - 0.0
30/03:00pm 23.2 15.5 2.1 25 10.5 WNW 32 56 17 30 - - 0.0
30/02:30pm 23.9 16.3 2.7 25 10.7 W 32 57 17 31 - - 0.0
30/02:00pm 23.8 16.1 3.2 26 10.5 W 33 65 18 35 - - 0.0
30/01:44pm 23.7 16.8 2.5 25 10.7 WNW 28 69 15 37 - - 0.0
30/01:30pm 23.8 17.1 3.7 27 10.4 W 28 44 15 24 - - 0.0
30/01:00pm 23.1 13.4 3.1 27 10.2 WNW 43 72 23 39 - - 0.0
30/12:30pm 23.1 13.6 2.0 25 10.5 W 41 67 22 36 - - 0.0
30/12:12pm 22.9 13.8 1.8 25 10.5 W 39 72 21 39 - - 0.0
30/12:00pm 22.9 15.4 1.3 24 10.6 W 30 54 16 29 - - 0.0
30/11:30am 22.5 13.8 2.1 26 10.1 W 37 59 20 32 - - 0.0
30/11:00am 22.6 14.9 3.2 28 9.8 WNW 33 69 18 37 - - 0.0
30/10:30am 21.6 14.7 2.8 29 9.4 WNW 28 61 15 33 - - 0.0
30/10:17am 21.4 14.5 2.6 29 9.4 WNW 28 46 15 25 - - 0.0
30/10:00am 20.9 14.9 3.6 32 8.7 WNW 24 46 13 25 - - 0.0
30/09:30am 20.2 13.2 4.3 35 8.1 WNW 30 54 16 29 - - 0.0
30/09:27am 19.8 13.1 3.5 34 8.2 WNW 28 54 15 29 - - 0.0
30/09:00am 19.2 13.4 4.2 37 7.6 WNW 24 43 13 23 - - 0.0
30/08:30am 18.2 12.7 4.0 39 7.1 WNW 22 37 12 20 - - 0.0
30/08:00am 17.4 11.9 4.0 41 6.7 WNW 22 37 12 20 - - 0.0
30/07:30am 16.5 11.5 3.6 42 6.3 WNW 19 35 10 19 - - 0.0
30/07:16am 16.5 9.8 3.6 42 6.3 WNW 28 46 15 25 - - 0.0
30/07:00am 16.5 10.5 3.2 41 6.5 WNW 24 44 13 24 - - 0.0
30/06:30am 16.0 10.8 3.4 43 6.1 WNW 20 35 11 19 - - 0.0
30/06:00am 15.2 11.2 3.0 44 5.9 WNW 13 24 7 13 - - 0.0
30/05:30am 15.7 11.3 2.8 42 6.2 WNW 15 30 8 16 - - 0.0
30/05:00am 16.0 11.2 2.4 40 6.5 WNW 17 28 9 15 - - 0.0
30/04:30am 16.3 11.4 2.3 39 6.7 NW 17 32 9 17 - - 0.0
30/04:00am 16.7 11.4 2.0 37 7.0 NW 19 33 10 18 - - 0.0
30/03:30am 16.6 11.3 1.9 37 7.0 NW 19 37 10 20 - - 0.0
30/03:00am 16.9 12.0 2.1 37 7.1 NW 17 32 9 17 - - 0.0
30/02:30am 17.0 11.8 2.2 37 7.1 NW 19 33 10 18 - - 0.0
30/02:00am 17.0 11.8 2.2 37 7.1 NW 19 39 10 21 - - 0.0
30/01:30am 16.8 11.5 2.0 37 7.0 NW 19 39 10 21 - - 0.0
30/01:00am 16.7 11.8 2.0 37 7.0 NW 17 30 9 16 - - 0.0
30/12:30am 16.6 11.7 2.2 38 6.9 NW 17 28 9 15 - - 0.0
30/12:00am 16.8 11.9 2.0 37 7.0 NW 17 30 9 16 - - 0.0
 
Date/Time
EST
Temp
°C
App
Temp
°C
Dew
Point
Rel
Hum
%
Delta-T
°C
Wind Press
QNH
hPa
Press
MSL
hPa
Rain
since 9 am
mm
Dir
 
Spd
km/h
Gust
km/h
Spd
kts
Gust
kts
29/11:30pm 17.0 12.1 2.2 37 7.1 NW 17 28 9 15 - - 0.0
29/11:00pm 17.1 12.2 1.9 36 7.2 NW 17 28 9 15 - - 0.0
29/10:30pm 17.3 12.8 2.1 36 7.3 NW 15 26 8 14 - - 0.0
29/10:00pm 17.3 12.9 2.5 37 7.1 NW 15 28 8 15 - - 0.0
29/09:30pm 17.3 13.6 2.5 37 7.1 NNW 11 19 6 10 - - 0.0
29/09:00pm 17.6 13.5 2.4 36 7.3 NW 13 24 7 13 - - 0.0
29/08:30pm 18.1 13.6 2.4 35 7.6 WNW 15 28 8 15 - - 0.0
29/08:00pm 18.0 13.6 2.7 36 7.4 WNW 15 24 8 13 - - 0.0
29/07:30pm 17.9 13.6 3.4 38 7.2 WNW 15 26 8 14 - - 0.0
29/07:00pm 17.9 13.6 3.4 38 7.2 W 15 22 8 12 - - 0.0
29/06:30pm 18.0 14.0 3.1 37 7.3 W 13 20 7 11 - - 0.0
29/06:00pm 18.6 13.9 3.3 36 7.6 W 17 24 9 13 - - 0.0
29/05:30pm 19.7 15.0 3.4 34 8.1 W 17 28 9 15 - - 0.0
29/05:00pm 20.7 15.6 3.9 33 8.5 W 20 32 11 17 - - 0.0
29/04:30pm 21.1 15.6 3.8 32 8.8 W 22 35 12 19 - - 0.0
29/04:00pm 21.4 16.0 4.5 33 8.7 W 22 41 12 22 - - 0.0
29/03:30pm 21.8 16.1 4.8 33 8.8 W 24 43 13 23 - - 0.0
29/03:13pm 21.5 14.8 3.7 31 9.1 W 28 46 15 25 - - 0.0
29/03:00pm 22.0 16.0 5.4 34 8.7 W 26 43 14 23 - - 0.0
29/02:30pm 21.3 15.2 4.8 34 8.6 W 26 39 14 21 - - 0.0
29/02:00pm 21.2 14.7 4.7 34 8.5 W 28 39 15 21 - - 0.0
29/01:30pm 21.5 15.0 4.6 33 8.7 W 28 39 15 21 - - 0.0
29/01:04pm 20.6 13.5 3.3 32 8.7 W 30 50 16 27 - - 0.0
29/01:00pm 20.5 13.7 3.3 32 8.6 W 28 44 15 24 - - 0.0
29/12:34pm 20.5 13.9 4.1 34 8.3 W 28 46 15 25 - - 0.0
29/12:30pm 20.3 12.9 3.9 34 8.3 W 32 46 17 25 - - 0.0
29/12:12pm 20.1 13.4 3.8 34 8.2 W 28 46 15 25 - - 0.0
29/12:00pm 19.6 12.1 3.3 34 8.1 W 32 48 17 26 - - 0.0
29/11:36am 19.4 12.7 3.6 35 7.9 W 28 46 15 25 - - 0.0
29/11:30am 19.5 14.0 4.0 36 7.8 W 22 46 12 25 - - 0.0
29/11:00am 18.7 11.6 3.3 36 7.6 W 30 50 16 27 - - 0.0
29/10:30am 18.3 9.8 3.0 36 7.5 W 37 57 20 31 - - 0.0
29/10:00am 17.8 10.5 2.2 35 7.5 W 30 50 16 27 - - 0.0
29/09:30am 17.0 10.2 3.3 40 6.7 W 28 48 15 26 - - 0.0
29/09:26am 16.9 10.1 2.9 39 6.8 W 28 48 15 26 - - 0.0
29/09:00am 15.9 10.0 3.7 44 6.0 W 24 41 13 22 - - 0.0
29/08:30am 14.3 9.2 4.0 50 5.0 W 20 35 11 19 - - 0.0
29/08:00am 13.5 9.2 3.3 50 4.9 W 15 24 8 13 - - 0.0
29/07:30am 12.9 8.1 2.5 49 4.8 W 17 22 9 12 - - 0.0
29/07:00am 12.7 6.5 2.0 48 4.9 W 24 35 13 19 - - 0.0
29/06:30am 12.3 7.1 2.2 50 4.7 WNW 19 35 10 19 - - 0.0
29/06:00am 11.9 7.1 2.4 52 4.4 W 17 30 9 16 - - 0.0
29/05:30am 12.1 6.0 2.6 52 4.4 W 24 39 13 21 - - 0.0
29/05:00am 11.6 5.9 2.6 54 4.2 W 22 35 12 19 - - 0.0
29/04:30am 11.9 6.2 2.6 53 4.3 W 22 33 12 18 - - 0.0
29/04:00am 11.5 5.7 2.5 54 4.1 W 22 33 12 18 - - 0.0
29/03:30am 11.8 4.9 2.3 52 4.4 W 28 46 15 25 - - 0.0
29/03:05am 12.0 4.3 2.5 52 4.4 W 32 50 17 27 - - 0.0
29/03:00am 11.8 4.5 2.3 52 4.4 W 30 43 16 23 - - 0.0
29/02:37am 11.9 5.0 2.4 52 4.4 W 28 46 15 25 - - 0.0
29/02:30am 11.6 4.6 2.1 52 4.3 W 28 39 15 21 - - 0.0
29/02:02am 12.0 4.3 2.5 52 4.4 W 32 50 17 27 - - 0.0
29/02:00am 11.8 4.5 2.3 52 4.4 W 30 43 16 23 - - 0.0
29/01:39am 12.2 5.2 2.1 50 4.6 W 28 50 15 27 - - 0.0
29/01:30am 12.4 5.8 2.3 50 4.7 W 26 41 14 22 - - 0.0
29/01:03am 12.8 5.4 2.1 48 4.9 W 30 50 16 27 - - 0.0
29/01:00am 12.4 5.8 2.0 49 4.8 W 26 41 14 22 - - 0.0
29/12:34am 12.9 5.9 2.2 48 5.0 WNW 28 48 15 26 - - 0.0
29/12:30am 12.9 6.3 2.2 48 5.0 WNW 26 48 14 26 - - 0.0
29/12:00am 12.8 5.8 2.1 48 4.9 W 28 44 15 24 - - 0.0
 
Date/Time
EST
Temp
°C
App
Temp
°C
Dew
Point
Rel
Hum
%
Delta-T
°C
Wind Press
QNH
hPa
Press
MSL
hPa
Rain
since 9 am
mm
Dir
 
Spd
km/h
Gust
km/h
Spd
kts
Gust
kts
28/11:48pm 13.2 6.2 2.1 47 5.1 WNW 28 46 15 25 - - 0.0
28/11:30pm 12.9 6.3 2.2 48 5.0 W 26 41 14 22 - - 0.0
28/11:00pm 12.5 5.6 2.4 50 4.7 W 28 41 15 22 - - 0.0
28/10:30pm 12.7 6.1 2.3 49 4.8 W 26 37 14 20 - - 0.0
28/10:00pm 12.6 6.5 2.7 51 4.6 W 24 35 13 19 - - 0.0
28/09:30pm 12.8 7.1 2.6 50 4.8 W 22 30 12 16 - - 0.0
28/09:00pm 12.8 8.0 2.6 50 4.8 W 17 24 9 13 - - 0.0
28/08:30pm 12.8 8.0 2.4 49 4.8 W 17 24 9 13 - - 0.0
28/08:00pm 13.5 8.7 2.7 48 5.1 W 17 26 9 14 - - 0.0
28/07:30pm 13.8 9.4 2.7 47 5.2 W 15 24 8 13 - - 0.0
28/07:00pm 14.0 9.6 2.6 46 5.4 WNW 15 22 8 12 - - 0.0
28/06:30pm 13.6 10.2 1.9 45 5.4 W 9 17 5 9 - - 0.0
28/06:00pm 15.0 11.2 1.9 41 6.1 W 11 17 6 9 - - 0.0
28/05:30pm 16.5 12.4 2.2 38 6.8 W 13 19 7 10 - - 0.0
28/05:00pm 17.1 12.3 2.7 38 7.0 WSW 17 26 9 14 - - 0.0
28/04:30pm 17.4 12.0 2.2 36 7.3 W 20 32 11 17 - - 0.0
28/04:00pm 17.6 11.7 2.0 35 7.5 W 22 35 12 19 - - 0.0
28/03:30pm 18.0 12.6 2.7 36 7.4 WSW 20 33 11 18 - - 0.0
28/03:00pm 18.4 13.2 3.5 37 7.4 W 20 33 11 18 - - 0.0
28/02:30pm 18.5 13.9 3.9 38 7.3 W 17 28 9 15 - - 0.0
28/02:00pm 18.1 12.7 2.4 35 7.6 WSW 20 30 11 16 - - 0.0

Other Formats:

Comma delimited format used in spreadsheet applications
http://www.bom.gov.au/fwo/IDN60801/IDN60801.94743.axf

JavaScript Object Notation format (JSON) in row-major order
http://www.bom.gov.au/fwo/IDN60801/IDN60801.94743.json